createdAt,value
2019-06-01T00:01:40.387Z,89.06
2019-06-01T00:04:09.979Z,88.95
2019-06-01T00:06:38.700Z,89.35
2019-06-01T00:09:47.285Z,89.79
2019-06-01T00:12:15.956Z,89.64
2019-06-01T00:14:45.977Z,90.32
2019-06-01T00:17:14.866Z,90.57
2019-06-01T00:19:44.038Z,90.44
2019-06-01T00:22:13.759Z,90.71
2019-06-01T00:27:50.592Z,90.47
2019-06-01T00:30:27.109Z,91.08
2019-06-01T00:32:49.687Z,91.24
2019-06-01T00:35:18.334Z,91.89
2019-06-01T00:37:47.626Z,91.51
2019-06-01T00:40:17.438Z,92.18
2019-06-01T00:42:46.108Z,93.03
2019-06-01T00:45:14.868Z,93.31
2019-06-01T00:47:44.750Z,93.38
2019-06-01T00:53:08.596Z,91.93
2019-06-01T00:55:37.237Z,92.17
2019-06-01T00:58:05.907Z,92.44
2019-06-01T01:00:43.281Z,92.56
2019-06-01T01:03:05.003Z,92.07
2019-06-01T01:08:49.008Z,92.93
2019-06-01T01:11:18.411Z,93.62
2019-06-01T01:13:47.244Z,93.53
2019-06-01T01:16:15.908Z,93.24
2019-06-01T01:18:45.611Z,94.09
2019-06-01T01:21:15.017Z,93.82
2019-06-01T01:23:43.624Z,93.74
2019-06-01T01:26:12.332Z,94.20
2019-06-01T01:28:40.971Z,94.64
2019-06-01T01:31:13.908Z,95.30
2019-06-01T01:33:40.052Z,95.62
2019-06-01T01:36:08.733Z,94.86
2019-06-01T01:38:37.340Z,94.27
2019-06-01T01:41:05.989Z,95.04
2019-06-01T01:43:34.619Z,94.33
2019-06-01T01:46:43.083Z,94.31
2019-06-01T01:49:11.722Z,93.90
2019-06-01T01:51:40.327Z,93.92
2019-06-01T01:54:08.899Z,94.11
2019-06-01T01:56:37.566Z,94.51
2019-06-01T01:59:06.250Z,95.18
2019-06-01T02:01:34.918Z,94.00
2019-06-01T02:04:03.601Z,94.01
2019-06-01T02:06:32.259Z,94.52
2019-06-01T02:09:01.794Z,95.19
2019-06-01T02:11:31.263Z,94.43
2019-06-01T02:14:00.091Z,94.65
2019-06-01T02:16:28.765Z,95.28
2019-06-01T02:18:58.776Z,95.65
2019-06-01T02:21:27.800Z,95.42
2019-06-01T02:23:56.922Z,95.38
2019-06-01T02:26:26.680Z,95.32
2019-06-01T02:28:55.416Z,95.74
2019-06-01T02:31:39.787Z,96.06
2019-06-01T02:33:56.136Z,96.43
2019-06-01T02:36:24.670Z,96.31
2019-06-01T02:38:54.603Z,96.03
2019-06-01T02:41:23.812Z,96.20
2019-06-01T02:43:52.343Z,95.84
2019-06-01T02:46:21.178Z,96.08
2019-06-01T02:48:49.854Z,96.17
2019-06-01T02:51:18.485Z,96.46
2019-06-01T02:53:47.168Z,96.92
2019-06-01T02:56:15.789Z,97.41
2019-06-01T02:58:44.433Z,97.73
2019-06-01T03:04:48.949Z,98.26
2019-06-01T03:07:57.421Z,98.28
2019-06-01T03:10:26.356Z,97.66
2019-06-01T03:13:15.628Z,96.91
2019-06-01T03:19:18.326Z,97.66
2019-06-01T03:22:26.783Z,97.35
2019-06-01T03:25:35.252Z,97.69
2019-06-01T03:28:43.694Z,97.88
2019-06-01T03:31:13.285Z,97.69
2019-06-01T03:33:42.695Z,97.56
2019-06-01T03:36:11.431Z,97.83
2019-06-01T03:41:35.138Z,98.66
2019-06-01T03:44:43.599Z,98.78
2019-06-01T03:47:12.347Z,98.37
2019-06-01T03:49:41.027Z,97.63
2019-06-01T03:52:09.667Z,97.31
2019-06-01T03:54:38.185Z,96.99
2019-06-01T03:57:07.251Z,97.23
2019-06-01T03:59:37.349Z,97.66
2019-06-01T04:02:07.065Z,97.89
2019-06-01T04:04:36.429Z,97.70
2019-06-01T04:07:06.302Z,97.43
2019-06-01T04:09:35.745Z,97.04
2019-06-01T04:12:05.490Z,96.70
2019-06-01T04:14:35.123Z,96.86
2019-06-01T04:17:04.148Z,97.33
2019-06-01T04:19:34.171Z,97.38
2019-06-01T04:22:03.939Z,97.00
2019-06-01T04:24:33.227Z,96.46
2019-06-01T04:27:02.110Z,96.65
2019-06-01T04:29:32.118Z,96.82
2019-06-01T04:32:00.779Z,97.10
2019-06-01T04:34:29.546Z,97.19
2019-06-01T04:36:58.285Z,97.14
2019-06-01T04:39:26.915Z,97.24
2019-06-01T04:41:55.462Z,97.38
2019-06-01T04:44:24.081Z,97.26
2019-06-01T04:46:52.649Z,96.79
2019-06-01T04:49:40.894Z,95.82
2019-06-01T04:52:11.783Z,95.23
2019-06-01T04:54:39.893Z,94.24
2019-06-01T04:57:08.980Z,93.91
2019-06-01T04:59:38.907Z,93.86
2019-06-01T05:02:07.545Z,93.55
2019-06-01T05:04:36.149Z,93.08
2019-06-01T05:07:05.045Z,92.37
2019-06-01T05:09:35.190Z,91.52
2019-06-01T05:12:05.194Z,90.85
2019-06-01T05:14:34.244Z,89.57
2019-06-01T05:17:02.895Z,89.49
2019-06-01T05:19:31.527Z,89.41
2019-06-01T05:22:00.264Z,88.99
2019-06-01T05:24:48.193Z,88.02
2019-06-01T05:27:17.352Z,88.72
2019-06-01T05:29:47.219Z,87.57
2019-06-01T05:32:16.756Z,86.07
2019-06-01T05:34:46.266Z,86.48
2019-06-01T05:37:16.553Z,85.96
2019-06-01T05:39:45.254Z,85.36
2019-06-01T05:42:14.772Z,86.08
2019-06-01T05:44:44.331Z,83.91
2019-06-01T05:47:14.189Z,83.58
2019-06-01T05:49:43.370Z,83.81
2019-06-01T05:52:12.424Z,83.94
2019-06-01T05:54:42.416Z,83.34
2019-06-01T05:57:11.102Z,83.08
2019-06-01T05:59:39.677Z,83.37
2019-06-01T06:02:08.358Z,82.52
2019-06-01T06:04:36.843Z,81.31
2019-06-01T06:07:05.522Z,80.32
2019-06-01T06:09:34.300Z,79.83
2019-06-01T06:12:03.006Z,78.27
2019-06-01T06:14:31.585Z,78.76
2019-06-01T06:17:00.183Z,79.46
2019-06-01T06:19:28.822Z,77.96
2019-06-01T06:21:57.513Z,79.08
2019-06-01T06:24:26.138Z,77.83
2019-06-01T06:26:54.751Z,78.12
2019-06-01T06:29:23.394Z,79.74
2019-06-01T06:31:52.006Z,79.49
2019-06-01T06:34:21.566Z,80.50
2019-06-01T06:36:51.032Z,81.14
2019-06-01T06:39:20.035Z,81.14
2019-06-01T06:41:50.068Z,81.22
2019-06-01T06:44:18.609Z,79.10
2019-06-01T06:46:47.167Z,77.86
2019-06-01T06:49:16.985Z,73.38
2019-06-01T06:51:46.210Z,73.09
2019-06-01T06:54:16.022Z,67.84
2019-06-01T06:56:45.109Z,57.57
2019-06-01T06:59:13.673Z,51.26
2019-06-01T07:01:42.299Z,46.18
2019-06-01T07:04:50.776Z,39.36
2019-06-01T07:07:19.591Z,37.96
2019-06-01T07:09:48.282Z,35.94
2019-06-01T07:12:16.930Z,34.36
2019-06-01T07:14:45.606Z,33.36
2019-06-01T07:17:15.865Z,32.68
2019-06-01T07:19:44.698Z,30.82
2019-06-01T07:22:16.297Z,28.64
2019-06-01T07:24:43.638Z,30.75
2019-06-01T07:27:12.308Z,31.23
2019-06-01T07:29:40.902Z,28.96
2019-06-01T07:32:09.553Z,27.88
2019-06-01T07:34:42.062Z,29.93
2019-06-01T07:37:48.533Z,29.70
2019-06-01T07:40:17.158Z,30.06
2019-06-01T07:42:45.829Z,29.42
2019-06-01T07:45:14.480Z,32.35
2019-06-01T07:50:38.240Z,31.36
2019-06-01T07:53:06.884Z,32.54
2019-06-01T07:55:35.567Z,29.22
2019-06-01T07:58:24.650Z,31.70
2019-06-01T08:00:53.295Z,33.14
2019-06-01T08:03:23.221Z,32.78
2019-06-01T08:05:52.323Z,32.24
2019-06-01T08:08:22.106Z,32.79
2019-06-01T08:10:51.299Z,33.33
2019-06-01T08:13:21.360Z,32.93
2019-06-01T08:15:50.298Z,33.02
2019-06-01T08:18:19.010Z,33.13
2019-06-01T08:20:47.694Z,34.63
2019-06-01T08:23:16.332Z,35.72
2019-06-01T08:26:04.288Z,39.49
2019-06-01T08:28:32.927Z,38.85
2019-06-01T08:31:01.623Z,38.71
2019-06-01T08:33:33.145Z,40.90
2019-06-01T08:36:00.636Z,40.29
2019-06-01T08:38:29.661Z,42.75
2019-06-01T08:40:59.729Z,41.97
2019-06-01T08:43:29.651Z,42.08
2019-06-01T08:48:53.738Z,40.59
2019-06-01T08:51:23.839Z,43.81
2019-06-01T08:53:52.719Z,42.77
2019-06-01T08:56:22.142Z,43.96
2019-06-01T09:01:59.881Z,44.38
2019-06-01T09:04:28.821Z,44.38
2019-06-01T09:06:58.943Z,44.12
2019-06-01T09:09:28.871Z,42.64
2019-06-01T09:11:57.984Z,42.17
2019-06-01T09:14:27.204Z,41.49
2019-06-01T09:16:56.903Z,44.19
2019-06-01T09:19:25.543Z,43.16
2019-06-01T09:21:54.148Z,44.02
2019-06-01T09:24:22.734Z,44.58
2019-06-01T09:26:51.423Z,42.29
2019-06-01T09:29:20.059Z,44.33
2019-06-01T09:31:48.741Z,43.63
2019-06-01T09:34:17.332Z,44.60
2019-06-01T09:36:45.895Z,44.05
2019-06-01T09:39:14.585Z,44.10
2019-06-01T09:41:43.236Z,42.13
2019-06-01T09:44:31.922Z,45.36
2019-06-01T09:47:01.604Z,40.15
2019-06-01T09:49:32.614Z,40.51
2019-06-01T09:52:00.636Z,41.59
2019-06-01T09:54:30.676Z,42.17
2019-06-01T09:57:00.835Z,42.06
2019-06-01T09:59:31.898Z,38.46
2019-06-01T10:02:21.197Z,39.91
2019-06-01T10:04:49.943Z,39.97
2019-06-01T10:07:18.557Z,39.39
2019-06-01T10:09:47.223Z,39.22
2019-06-01T10:12:15.891Z,39.24
2019-06-01T10:14:44.461Z,42.02
2019-06-01T10:17:13.072Z,45.32
2019-06-01T10:19:42.915Z,40.73
2019-06-01T10:22:12.080Z,39.44
2019-06-01T10:24:41.394Z,41.26
2019-06-01T10:27:11.131Z,40.83
2019-06-01T10:29:40.084Z,43.65
2019-06-01T10:32:10.213Z,38.83
2019-06-01T10:37:47.004Z,42.56
2019-06-01T10:40:15.938Z,40.38
2019-06-01T10:42:44.541Z,41.93
2019-06-01T10:45:52.969Z,40.54
2019-06-01T10:48:21.649Z,39.45
2019-06-01T10:50:50.215Z,42.77
2019-06-01T10:53:18.829Z,41.08
2019-06-01T10:55:47.542Z,39.08
2019-06-01T10:58:16.214Z,38.66
2019-06-01T11:00:50.642Z,43.32
2019-06-01T11:03:15.264Z,38.04
2019-06-01T11:05:43.930Z,38.95
2019-06-01T11:08:12.583Z,39.09
2019-06-01T11:10:41.183Z,40.57
2019-06-01T11:13:09.851Z,39.51
2019-06-01T11:15:39.093Z,41.38
2019-06-01T11:18:08.908Z,39.45
2019-06-01T11:20:37.544Z,38.12
2019-06-01T11:23:06.410Z,36.61
2019-06-01T11:25:35.607Z,37.89
2019-06-01T11:28:05.526Z,39.14
2019-06-01T11:30:34.204Z,37.44
2019-06-01T11:33:02.818Z,39.50
2019-06-01T11:35:31.499Z,41.08
2019-06-01T11:38:00.080Z,41.07
2019-06-01T11:40:28.771Z,40.38
2019-06-01T11:42:57.505Z,37.56
2019-06-01T11:45:26.147Z,36.10
2019-06-01T11:47:54.772Z,40.20
2019-06-01T11:50:23.404Z,38.79
2019-06-01T11:52:52.026Z,41.39
2019-06-01T11:55:20.667Z,42.89
2019-06-01T11:57:49.355Z,40.94
2019-06-01T12:00:57.773Z,39.61
2019-06-01T12:03:26.386Z,40.12
2019-06-01T12:05:54.996Z,37.74
2019-06-01T12:08:23.566Z,37.08
2019-06-01T12:10:52.198Z,38.84
2019-06-01T12:13:20.886Z,38.32
2019-06-01T12:15:49.522Z,37.92
2019-06-01T12:18:18.142Z,39.90
2019-06-01T12:20:47.348Z,40.53
2019-06-01T12:23:17.156Z,39.11
2019-06-01T12:25:46.305Z,39.97
2019-06-01T12:28:16.193Z,38.02
2019-06-01T12:30:45.903Z,38.23
2019-06-01T12:33:15.145Z,37.83
2019-06-01T12:35:44.013Z,37.26
2019-06-01T12:38:14.095Z,35.53
2019-06-01T12:40:43.290Z,37.19
2019-06-01T12:43:13.052Z,38.00
2019-06-01T12:45:41.698Z,35.84
2019-06-01T12:48:10.383Z,36.43
2019-06-01T12:50:39.939Z,38.66
2019-06-01T12:53:09.389Z,38.17
2019-06-01T12:55:38.076Z,38.19
2019-06-01T12:58:06.702Z,38.73
2019-06-01T13:00:35.433Z,38.62
2019-06-01T13:05:58.770Z,37.40
2019-06-01T13:08:46.845Z,36.10
2019-06-01T13:11:15.532Z,36.10
2019-06-01T13:13:45.255Z,37.78
2019-06-01T13:16:14.430Z,35.87
2019-06-01T13:18:43.094Z,32.38
2019-06-01T13:21:11.806Z,32.72
2019-06-01T13:23:41.322Z,34.68
2019-06-01T13:26:10.855Z,33.09
2019-06-01T13:28:39.525Z,34.81
2019-06-01T13:31:08.211Z,37.82
2019-06-01T13:36:26.118Z,37.37
2019-06-01T13:38:54.760Z,38.03
2019-06-01T13:41:43.071Z,39.57
2019-06-01T13:44:13.079Z,39.57
2019-06-01T13:46:41.756Z,38.03
2019-06-01T13:49:10.463Z,38.08
2019-06-01T13:51:39.072Z,38.13
2019-06-01T13:54:07.755Z,37.75
2019-06-01T13:56:36.382Z,39.92
2019-06-01T13:59:24.297Z,36.86
2019-06-01T14:01:53.246Z,36.86
2019-06-01T14:04:23.193Z,34.97
2019-06-01T14:06:53.109Z,35.43
2019-06-01T14:09:34.316Z,32.52
2019-06-01T14:12:03.005Z,34.81
2019-06-01T14:15:11.454Z,33.33
2019-06-01T14:17:40.073Z,33.17
2019-06-01T14:20:08.864Z,35.12
2019-06-01T14:22:37.435Z,33.09
2019-06-01T14:25:45.987Z,33.06
2019-06-01T14:28:14.620Z,33.72
2019-06-01T14:30:43.296Z,33.37
2019-06-01T14:33:11.934Z,33.02
2019-06-01T14:35:40.530Z,34.38
2019-06-01T14:38:09.170Z,33.74
2019-06-01T14:40:41.293Z,33.50
2019-06-01T14:43:08.198Z,34.03
2019-06-01T14:45:36.870Z,33.36
2019-06-01T14:48:05.508Z,34.60
2019-06-01T14:50:34.199Z,34.49
2019-06-01T14:53:02.826Z,34.98
2019-06-01T14:55:31.507Z,35.03
2019-06-01T14:58:00.096Z,35.24
2019-06-01T15:00:28.861Z,36.39
2019-06-01T15:02:58.428Z,36.23
2019-06-01T15:05:39.739Z,36.63
2019-06-01T15:08:08.422Z,36.63
2019-06-01T15:10:37.061Z,38.06
2019-06-01T15:13:05.743Z,36.43
2019-06-01T15:15:34.390Z,35.63
2019-06-01T15:18:05.287Z,35.43
2019-06-01T15:20:33.458Z,34.78
2019-06-01T15:23:03.607Z,36.10
2019-06-01T15:25:32.510Z,34.75
2019-06-01T15:28:01.141Z,35.40
2019-06-01T15:30:29.813Z,35.18
2019-06-01T15:32:58.444Z,35.48
2019-06-01T15:35:27.074Z,34.82
2019-06-01T15:37:59.799Z,34.68
2019-06-01T15:41:05.954Z,33.89
2019-06-01T15:43:34.601Z,34.62
2019-06-01T15:46:03.287Z,32.49
2019-06-01T15:48:31.856Z,33.61
2019-06-01T15:51:05.045Z,33.26
2019-06-01T15:53:30.788Z,34.53
2019-06-01T15:55:59.441Z,33.36
2019-06-01T15:58:28.078Z,34.54
2019-06-01T16:00:56.839Z,34.36
2019-06-01T16:03:25.524Z,35.80
2019-06-01T16:05:54.975Z,35.56
2019-06-01T16:08:24.632Z,36.46
2019-06-01T16:10:53.289Z,37.35
2019-06-01T16:13:21.943Z,37.32
2019-06-01T16:15:50.642Z,37.74
2019-06-01T16:18:19.286Z,36.83
2019-06-01T16:21:27.759Z,35.59
2019-06-01T16:23:56.464Z,36.68
2019-06-01T16:26:25.087Z,37.18
2019-06-01T16:28:54.360Z,35.78
2019-06-01T16:31:23.980Z,35.81
2019-06-01T16:33:52.656Z,36.63
2019-06-01T16:36:21.343Z,35.69
2019-06-01T16:38:49.968Z,37.62
2019-06-01T16:41:18.626Z,37.98
2019-06-01T16:43:47.296Z,38.22
2019-06-01T16:46:15.966Z,38.11
2019-06-01T16:48:44.609Z,38.39
2019-06-01T16:51:13.301Z,38.78
2019-06-01T16:53:41.925Z,40.48
2019-06-01T16:56:10.569Z,42.11
2019-06-01T16:58:39.240Z,39.57
2019-06-01T17:01:07.895Z,40.48
2019-06-01T17:03:36.573Z,42.00
2019-06-01T17:06:45.035Z,42.31
2019-06-01T17:09:13.720Z,42.96
2019-06-01T17:11:42.511Z,45.14
2019-06-01T17:14:11.190Z,44.85
2019-06-01T17:16:39.824Z,43.84
2019-06-01T17:19:08.510Z,43.76
2019-06-01T17:21:37.176Z,45.51
2019-06-01T17:24:45.626Z,43.97
2019-06-01T17:27:14.140Z,43.55
2019-06-01T17:29:42.753Z,43.46
2019-06-01T17:32:22.966Z,42.26
2019-06-01T17:34:41.787Z,43.43
2019-06-01T17:37:50.204Z,43.71
2019-06-01T17:40:35.615Z,45.41
2019-06-01T17:42:49.268Z,44.52
2019-06-01T17:45:17.968Z,45.01
2019-06-01T17:47:46.701Z,46.52
2019-06-01T17:53:10.028Z,44.73
2019-06-01T17:56:18.487Z,44.85
2019-06-01T17:58:47.115Z,43.44
2019-06-01T18:01:15.811Z,44.61
2019-06-01T18:03:44.459Z,44.20
2019-06-01T18:09:47.924Z,44.21
2019-06-01T18:12:16.610Z,44.82
2019-06-01T18:14:45.221Z,45.94
2019-06-01T18:17:13.879Z,44.67
2019-06-01T18:19:42.522Z,44.82
2019-06-01T18:22:11.207Z,45.15
2019-06-01T18:24:39.848Z,45.18
2019-06-01T18:27:08.646Z,46.09
2019-06-01T18:29:39.279Z,46.13
2019-06-01T18:32:07.690Z,46.85
2019-06-01T18:34:36.321Z,47.33
2019-06-01T18:37:05.733Z,48.11
2019-06-01T18:39:35.362Z,49.68
2019-06-01T18:42:04.041Z,50.02
2019-06-01T18:44:32.709Z,50.07
2019-06-01T18:47:01.307Z,51.47
2019-06-01T18:49:30.064Z,51.12
2019-06-01T18:51:58.697Z,54.40
2019-06-01T18:54:27.316Z,54.61
2019-06-01T18:57:09.099Z,53.68
2019-06-01T18:59:26.241Z,52.64
2019-06-01T19:01:54.819Z,51.80
2019-06-01T19:04:23.445Z,50.98
2019-06-01T19:06:52.067Z,51.22
2019-06-01T19:09:20.698Z,52.63
2019-06-01T19:11:49.383Z,52.44
2019-06-01T19:14:18.070Z,53.31
2019-06-01T19:16:46.687Z,54.47
2019-06-01T19:19:16.674Z,55.22
2019-06-01T19:21:45.653Z,56.60
2019-06-01T19:24:14.706Z,56.25
2019-06-01T19:26:44.632Z,57.77
2019-06-01T19:29:13.204Z,57.70
2019-06-01T19:32:21.686Z,58.82
2019-06-01T19:34:50.319Z,58.32
2019-06-01T19:37:19.390Z,60.29
2019-06-01T19:40:27.810Z,61.07
2019-06-01T19:42:56.474Z,60.66
2019-06-01T19:45:29.238Z,60.57
2019-06-01T19:47:55.792Z,61.04
2019-06-01T19:50:24.470Z,61.25
2019-06-01T19:52:53.235Z,61.71
2019-06-01T19:55:21.858Z,62.86
2019-06-01T19:57:50.570Z,62.54
2019-06-01T20:00:19.994Z,61.52
2019-06-01T20:02:48.736Z,62.38
2019-06-01T20:05:18.728Z,63.29
2019-06-01T20:07:58.844Z,62.47
2019-06-01T20:10:27.546Z,62.54
2019-06-01T20:12:56.211Z,62.91
2019-06-01T20:15:24.887Z,63.04
2019-06-01T20:17:53.465Z,64.53
2019-06-01T20:21:01.950Z,63.43
2019-06-01T20:23:30.499Z,63.28
2019-06-01T20:25:59.066Z,63.01
2019-06-01T20:28:27.773Z,63.31
2019-06-01T20:30:56.432Z,64.18
2019-06-01T20:33:25.051Z,64.20
2019-06-01T20:35:53.673Z,64.61
2019-06-01T20:38:23.320Z,66.43
2019-06-01T20:40:52.882Z,65.96
2019-06-01T20:43:22.808Z,66.72
2019-06-01T20:46:12.757Z,64.64
2019-06-01T20:48:41.604Z,65.35
2019-06-01T20:51:10.222Z,64.71
2019-06-01T20:53:58.185Z,65.54
2019-06-01T20:56:46.143Z,65.24
2019-06-01T20:59:17.336Z,66.37
2019-06-01T21:01:45.302Z,65.72
2019-06-01T21:04:33.665Z,66.70
2019-06-01T21:07:02.218Z,66.44
2019-06-01T21:09:50.018Z,66.50
2019-06-01T21:12:18.720Z,67.21
2019-06-01T21:14:47.897Z,68.15
2019-06-01T21:17:16.616Z,67.03
2019-06-01T21:19:45.397Z,68.00
2019-06-01T21:22:33.993Z,69.37
2019-06-01T21:25:02.685Z,68.53
2019-06-01T21:27:31.401Z,68.52
2019-06-01T21:30:00.443Z,68.59
2019-06-01T21:32:48.525Z,70.62
2019-06-01T21:35:17.357Z,71.72
2019-06-01T21:37:45.984Z,70.21
2019-06-01T21:40:54.445Z,70.37
2019-06-01T21:43:32.155Z,70.96
2019-06-01T21:45:53.499Z,70.25
2019-06-01T21:48:22.182Z,70.11
2019-06-01T21:50:50.759Z,71.04
2019-06-01T21:53:19.942Z,73.39
2019-06-01T21:55:49.927Z,72.41
2019-06-01T21:58:18.921Z,72.44
2019-06-01T22:00:49.004Z,72.17
2019-06-01T22:03:19.063Z,72.45
2019-06-01T22:05:48.037Z,73.18
2019-06-01T22:08:17.199Z,72.95
2019-06-01T22:10:47.037Z,73.52
2019-06-01T22:13:20.284Z,74.15
2019-06-01T22:15:46.024Z,74.44
2019-06-01T22:18:14.652Z,74.71
2019-06-01T22:20:43.224Z,74.86
2019-06-01T22:23:30.963Z,74.77
2019-06-01T22:26:19.847Z,74.08
2019-06-01T22:28:49.264Z,73.99
2019-06-01T22:31:37.034Z,73.77
2019-06-01T22:34:05.704Z,73.96
2019-06-01T22:36:34.352Z,74.62
2019-06-01T22:39:02.975Z,74.19
2019-06-01T22:41:32.327Z,75.06
2019-06-01T22:44:01.966Z,74.02
2019-06-01T22:46:30.541Z,74.53
2019-06-01T22:48:59.142Z,75.21
2019-06-01T22:51:46.969Z,75.67
2019-06-01T22:54:34.818Z,75.49
2019-06-01T22:57:22.715Z,75.64
2019-06-01T22:59:51.408Z,76.56
2019-06-01T23:02:20.060Z,76.10
2019-06-01T23:05:07.991Z,76.91
2019-06-01T23:07:36.599Z,76.43
2019-06-01T23:10:45.300Z,76.41
2019-06-01T23:13:13.982Z,76.24
2019-06-01T23:15:42.663Z,75.33
2019-06-01T23:18:11.534Z,75.29
2019-06-01T23:20:40.368Z,75.40
2019-06-01T23:23:08.986Z,75.78
2019-06-01T23:25:37.679Z,75.68
2019-06-01T23:28:06.393Z,76.14
2019-06-01T23:30:35.078Z,77.65
2019-06-01T23:33:03.668Z,78.04
2019-06-01T23:35:32.752Z,77.50
2019-06-01T23:38:02.886Z,78.00
2019-06-01T23:40:50.772Z,77.64
2019-06-01T23:43:19.345Z,78.19
2019-06-01T23:45:47.955Z,77.84
2019-06-01T23:48:16.528Z,78.15
2019-06-01T23:50:45.152Z,77.77
2019-06-01T23:53:14.186Z,76.87
2019-06-01T23:55:44.214Z,75.42
2019-06-01T23:58:12.859Z,75.64
